Kezdőlap
METAR-TAF:

METAR-TAF

Repülőterek :

Sanya, Kína

földrajzi szélesség: 18-18N, földrajzi hosszúság: 109-24E, magasság: 27 m

Jelenlegi meteorológiai megfigyelések

A jelentés 20 perccel ezelõtt készült, 21:00 UTC
Délkeleti szél 4 kt, kelet-délkeleti és déli között változik
Hőmérséklet 29°C
Páratartalom 89%
Légköri nyomás 1006 hPa
Látótávolság 10 km, vagy több
Szórványos felhőzet 1700 lábon

METAR: ZJSY 032100Z 14002MPS 110V170 9999 SCT017 29/27 Q1006 NOSIG

Idő: 05:20 (21:20 UTC)

Előrejelzés

A jelentés 6 órával és 18 perccel ezelõtt készült, 15:02 UTC
Az előrejelzés 03-én 18 óra UTC és 04-én 18 óra UTC között érvényes
Dél-délkeleti szél 6 kt
Látótávolság 10 km, vagy több
Szórványos felhőzet 2000 lábon

TAF: ZJSY 031502Z 0318/0418 16003MPS 9999 SCT020 TX33/0406Z TN29/0321Z

Meteorológiai megfigyelések és előrejelzések több, mint 4000 repülőtéren (METAR és TAF jelentéseket).

A térképen piros és sárga pontok jelzik az elérhető meteorológiai állomásokat.

Mozgassa az egeret a pont fölött, hogy megjelenjen az állomás neve.

Azután kattintson az időjárási megfigyelések és előrejelzések megtekintéséhez.

A térkép megváltoztatása: kattintson a fekete keresztel jelölt zöld gombra ráközelítéshez, a vonallal jelölt zöld gombra távolításhoz, vagy a zöld nyilakra a szomszédos térképek eléréséhez.


METAR-TAF: